Crew | Aerofun Virtual



 METAR AND TAF INFORMATION
METAR FOR LEMG
ADDS - METARS form results

(2349 UTC 11 November 2019)
Data provider http://aviationweather.gov/metar/data/
 
METAR text: LEMG 112330Z 27009KT 240V300 9999 FEW030 SCT065 16/12 Q1016 NOSIG
Conditions at: LEMG (MALAGA (CIV/MIL), ES) observed 2330 UTC 11 November 2019
Temperature: 16.0°C (61°F)
Dewpoint: 12.0°C (54°F) [RH = 77%]
Pressure (altimeter): 30.00 inches Hg (1016.0 mb)
Winds: from the W (270 degrees) at 10 MPH (9 knots; 4.6 m/s)
Visibility: 6 or more miles (10+ km)
Ceiling: at least 12,000 feet AGL
Clouds: few clouds at 3000 feet AGL
scattered clouds at 6500 feet AGL
Weather: no significant weather observed at this time

METAR text: LEMG 112300Z 29009KT 250V320 9999 FEW030 SCT065 16/12 Q1016 NOSIG
Conditions at: LEMG (MALAGA (CIV/MIL), ES) observed 2300 UTC 11 November 2019
Temperature: 16.0°C (61°F)
Dewpoint: 12.0°C (54°F) [RH = 77%]
Pressure (altimeter): 30.00 inches Hg (1016.0 mb)
Winds: from the WNW (290 degrees) at 10 MPH (9 knots; 4.6 m/s)
Visibility: 6 or more miles (10+ km)
Ceiling: at least 12,000 feet AGL
Clouds: few clouds at 3000 feet AGL
scattered clouds at 6500 feet AGL
Weather: no significant weather observed at this time

Forecast for: LEMG (MALAGA (CIV/MIL), ES)
Text: TAF LEMG 112300Z 1200/1224 29010KT 9999 FEW030 SCT050 TX20/1213Z TN14/1206Z
Forecast period: 0000 UTC 12 November 2019 to 0000 UTC 13 November 2019
Forecast type: FROM: standard forecast or significant change
Winds: from the WNW (290 degrees) at 12 MPH (10 knots; 5.1 m/s)
Visibility: 6 or more miles 10+ km)
Ceiling: at least 12,000 feet AGL
Clouds: few clouds at 3000 feet AGL
scattered clouds at 5000 feet AGL
Weather: no significant weather forecast for this period

 AIRPORT MAP

 RUNWAY INFORMATION
Runway 12 Runway length 9022 ft Runway width 148 ft
Runway elevation 52 ft Runway displaced threshold 0 ft Runway heading 119
Runway 30 Runway length 9022 ft Runway width 148 ft
Runway elevation 31 ft Runway displaced threshold 0 ft Runway heading 299
Runway 13 Runway length 10500 ft Runway width 148 ft
Runway elevation 52 ft Runway displaced threshold 0 ft Runway heading 133
Runway 31 Runway length 10500 ft Runway width 148 ft
Runway elevation 31 ft Runway displaced threshold 0 ft Runway heading 313

 AIRPORT FREQUENCIES
Type A/D Name APP Frequency 123.85 MHZ
Type ATIS Name ATIS Frequency 120.375 MHZ
Type CLD Name CLR DEL Frequency 121.875 MHZ
Type GND Name GND-W Frequency 121.7 MHZ
Type GND Name GND-E Frequency 121.95 MHZ
Type TWR Name TWR-W (RWY Frequency 118.15 MHZ
Type TWR Name TWR-E (RWY Frequency 118.775 MHZ

 AIRPORT NEAR NAVIGATION AIDS
Type VOR-DME Name Martin Frequency 112600 KHZ
Type VOR-DME Name Malaga Frequency 112000 KHZ
Type VOR-DME Name Malaga Frequency 113550 KHZ
Type NDB Name Malaga Frequency 330 KHZ